createdAt,value
2019-01-10T00:01:50.762Z,2.95
2019-01-10T00:04:24.433Z,2.81
2019-01-10T00:06:55.309Z,2.87
2019-01-10T00:09:26.273Z,3.04
2019-01-10T00:11:57.116Z,3.12
2019-01-10T00:14:27.995Z,2.85
2019-01-10T00:16:58.870Z,2.96
2019-01-10T00:19:29.684Z,3.15
2019-01-10T00:22:00.515Z,3.03
2019-01-10T00:24:31.316Z,3.18
2019-01-10T00:27:02.159Z,2.97
2019-01-10T00:29:33.111Z,2.95
2019-01-10T00:32:03.930Z,2.75
2019-01-10T00:34:34.795Z,2.91
2019-01-10T00:37:05.667Z,2.86
2019-01-10T00:39:36.455Z,2.68
2019-01-10T00:42:07.448Z,2.73
2019-01-10T00:44:41.669Z,2.84
2019-01-10T00:47:11.892Z,2.84
2019-01-10T00:49:45.894Z,2.82
2019-01-10T00:52:16.764Z,2.64
2019-01-10T00:54:47.617Z,2.70
2019-01-10T00:57:18.677Z,2.58
2019-01-10T00:59:49.784Z,2.62
2019-01-10T01:02:20.866Z,2.83
2019-01-10T01:04:51.940Z,2.64
2019-01-10T01:07:25.833Z,2.62
2019-01-10T01:09:56.783Z,2.84
2019-01-10T01:12:27.744Z,2.64
2019-01-10T01:15:01.774Z,2.93
2019-01-10T01:17:37.800Z,2.74
2019-01-10T01:20:10.125Z,2.71
2019-01-10T01:22:40.966Z,2.75
2019-01-10T01:25:12.923Z,2.87
2019-01-10T01:27:44.026Z,2.87
2019-01-10T01:30:18.472Z,2.98
2019-01-10T01:32:52.988Z,2.83
2019-01-10T01:35:23.996Z,2.75
2019-01-10T01:37:57.700Z,2.57
2019-01-10T01:40:28.488Z,2.51
2019-01-10T01:43:07.288Z,2.63
2019-01-10T01:45:32.044Z,2.60
2019-01-10T01:48:03.120Z,2.54
2019-01-10T01:50:34.020Z,2.56
2019-01-10T01:53:06.944Z,2.91
2019-01-10T01:55:37.944Z,2.99
2019-01-10T01:58:08.782Z,2.86
2019-01-10T02:00:40.798Z,2.79
2019-01-10T02:03:14.852Z,2.65
2019-01-10T02:05:45.752Z,2.67
2019-01-10T02:08:16.624Z,2.70
2019-01-10T02:10:47.631Z,2.61
2019-01-10T02:13:18.586Z,2.83
2019-01-10T02:15:49.499Z,2.89
2019-01-10T02:18:20.335Z,2.68
2019-01-10T02:20:51.188Z,2.68
2019-01-10T02:23:24.084Z,2.65
2019-01-10T02:25:54.897Z,2.71
2019-01-10T02:28:25.792Z,2.88
2019-01-10T02:30:56.636Z,2.70
2019-01-10T02:33:27.503Z,2.74
2019-01-10T02:35:58.322Z,2.63
2019-01-10T02:38:29.199Z,2.65
2019-01-10T02:41:00.042Z,2.80
2019-01-10T02:43:30.932Z,2.62
2019-01-10T02:46:01.794Z,2.78
2019-01-10T02:48:32.725Z,2.79
2019-01-10T02:51:03.524Z,2.62
2019-01-10T02:53:34.325Z,2.72
2019-01-10T02:56:05.371Z,2.81
2019-01-10T02:58:36.211Z,2.84
2019-01-10T03:01:07.087Z,2.75
2019-01-10T03:03:37.918Z,2.72
2019-01-10T03:06:08.823Z,2.79
2019-01-10T03:08:39.676Z,2.74
2019-01-10T03:11:10.588Z,2.63
2019-01-10T03:13:41.451Z,2.80
2019-01-10T03:16:12.267Z,2.62
2019-01-10T03:18:43.171Z,2.65
2019-01-10T03:21:13.978Z,2.63
2019-01-10T03:23:44.761Z,2.65
2019-01-10T03:26:15.604Z,2.56
2019-01-10T03:28:46.425Z,2.59
2019-01-10T03:31:17.312Z,2.48
2019-01-10T03:33:48.159Z,2.55
2019-01-10T03:36:18.972Z,2.63
2019-01-10T03:38:49.775Z,2.41
2019-01-10T03:41:20.633Z,2.39
2019-01-10T03:43:51.687Z,2.46
2019-01-10T03:46:23.093Z,2.61
2019-01-10T03:48:54.040Z,2.58
2019-01-10T03:51:24.834Z,2.71
2019-01-10T03:53:55.649Z,2.71
2019-01-10T03:56:26.473Z,2.51
2019-01-10T03:58:57.358Z,2.53
2019-01-10T04:01:28.275Z,2.41
2019-01-10T04:03:59.033Z,2.49
2019-01-10T04:06:29.847Z,2.38
2019-01-10T04:09:00.786Z,2.49
2019-01-10T04:11:31.650Z,2.56
2019-01-10T04:14:02.573Z,2.55
2019-01-10T04:16:33.479Z,2.57
2019-01-10T04:19:04.370Z,2.60
2019-01-10T04:21:35.164Z,2.55
2019-01-10T04:24:06.034Z,2.49
2019-01-10T04:26:36.828Z,2.58
2019-01-10T04:29:07.647Z,2.63
2019-01-10T04:31:38.478Z,2.64
2019-01-10T04:34:09.316Z,2.73
2019-01-10T04:36:40.085Z,2.73
2019-01-10T04:39:11.270Z,2.62
2019-01-10T04:41:42.014Z,2.76
2019-01-10T04:44:12.854Z,2.78
2019-01-10T04:46:43.682Z,2.78
2019-01-10T04:49:14.580Z,2.60
2019-01-10T04:51:45.418Z,2.69
2019-01-10T04:54:18.420Z,2.68
2019-01-10T04:56:52.538Z,2.63
2019-01-10T04:59:24.003Z,2.67
2019-01-10T05:01:57.144Z,2.69
2019-01-10T05:04:33.293Z,2.76
2019-01-10T05:07:04.195Z,2.74
2019-01-10T05:09:37.974Z,2.73
2019-01-10T05:14:50.583Z,2.64
2019-01-10T05:17:21.392Z,2.59
2019-01-10T05:19:54.698Z,2.67
2019-01-10T05:22:25.416Z,2.72
2019-01-10T05:24:56.319Z,2.45
2019-01-10T05:27:27.067Z,2.69
2019-01-10T05:29:58.190Z,2.68
2019-01-10T05:32:29.178Z,2.72
2019-01-10T05:35:00.328Z,2.53
2019-01-10T05:37:31.248Z,2.75
2019-01-10T05:40:02.148Z,2.74
2019-01-10T05:42:37.262Z,2.76
2019-01-10T05:45:10.236Z,2.75
2019-01-10T05:47:42.909Z,2.76
2019-01-10T05:50:18.028Z,2.68
2019-01-10T05:52:48.926Z,2.67
2019-01-10T05:55:22.890Z,2.75
2019-01-10T05:57:53.950Z,2.53
2019-01-10T06:00:29.725Z,2.64
2019-01-10T06:03:01.084Z,2.55
2019-01-10T06:05:31.942Z,2.57
2019-01-10T06:08:02.916Z,2.65
2019-01-10T06:10:33.827Z,2.64
2019-01-10T06:13:04.703Z,2.62
2019-01-10T06:15:35.583Z,2.63
2019-01-10T06:18:06.914Z,2.56
2019-01-10T06:20:37.770Z,2.61
2019-01-10T06:23:08.692Z,2.37
2019-01-10T06:25:39.534Z,2.38
2019-01-10T06:28:10.333Z,2.44
2019-01-10T06:30:41.241Z,2.25
2019-01-10T06:33:12.020Z,2.40
2019-01-10T06:35:42.908Z,2.42
2019-01-10T06:38:13.737Z,2.27
2019-01-10T06:40:44.657Z,2.47
2019-01-10T06:43:15.513Z,2.41
2019-01-10T06:45:46.409Z,2.46
2019-01-10T06:48:17.267Z,2.55
2019-01-10T06:50:48.127Z,2.56
2019-01-10T06:53:19.044Z,2.40
2019-01-10T06:55:49.839Z,2.34
2019-01-10T06:58:20.721Z,2.43
2019-01-10T07:00:51.561Z,2.19
2019-01-10T07:03:22.405Z,2.31
2019-01-10T07:05:53.127Z,2.20
2019-01-10T07:08:23.885Z,2.32
2019-01-10T07:10:54.686Z,2.26
2019-01-10T07:13:25.493Z,2.18
2019-01-10T07:15:56.317Z,2.24
2019-01-10T07:18:27.161Z,2.14
2019-01-10T07:20:57.980Z,2.09
2019-01-10T07:23:28.805Z,2.07
2019-01-10T07:25:59.673Z,2.09
2019-01-10T07:28:30.521Z,2.13
2019-01-10T07:31:04.773Z,2.18
2019-01-10T07:33:35.586Z,2.31
2019-01-10T07:36:06.674Z,2.24
2019-01-10T07:38:39.075Z,2.40
2019-01-10T07:41:09.875Z,2.32
2019-01-10T07:43:40.639Z,2.33
2019-01-10T07:46:11.573Z,2.13
2019-01-10T07:48:44.049Z,2.24
2019-01-10T07:51:14.904Z,2.08
2019-01-10T07:53:45.693Z,2.01
2019-01-10T07:56:16.470Z,2.08
2019-01-10T07:58:47.214Z,2.06
2019-01-10T08:01:17.988Z,2.03
2019-01-10T08:03:48.743Z,2.17
2019-01-10T08:06:19.586Z,2.00
2019-01-10T08:08:50.416Z,2.07
2019-01-10T08:11:21.257Z,2.12
2019-01-10T08:13:52.064Z,2.19
2019-01-10T08:16:22.951Z,2.31
2019-01-10T08:18:53.806Z,2.21
2019-01-10T08:21:24.576Z,2.23
2019-01-10T08:23:55.422Z,2.17
2019-01-10T08:26:26.247Z,2.02
2019-01-10T08:28:57.116Z,2.22
2019-01-10T08:31:27.900Z,2.13
2019-01-10T08:33:58.662Z,2.15
2019-01-10T08:36:32.540Z,2.40
2019-01-10T08:39:01.980Z,2.32
2019-01-10T08:41:32.776Z,2.49
2019-01-10T08:44:03.520Z,2.41
2019-01-10T08:46:34.401Z,2.47
2019-01-10T08:49:05.164Z,2.42
2019-01-10T08:51:38.004Z,2.49
2019-01-10T08:54:08.404Z,2.27
2019-01-10T08:56:39.356Z,2.56
2019-01-10T08:59:10.169Z,2.51
2019-01-10T09:01:40.984Z,2.57
2019-01-10T09:04:11.747Z,2.25
2019-01-10T09:06:42.562Z,2.21
2019-01-10T09:09:13.329Z,1.89
2019-01-10T09:11:44.144Z,1.98
2019-01-10T09:14:14.940Z,1.88
2019-01-10T09:16:45.692Z,1.78
2019-01-10T09:19:16.532Z,1.61
2019-01-10T09:21:47.384Z,1.75
2019-01-10T09:24:18.197Z,1.66
2019-01-10T09:26:48.956Z,1.75
2019-01-10T09:29:19.801Z,1.73
2019-01-10T09:31:50.596Z,1.78
2019-01-10T09:34:24.863Z,1.81
2019-01-10T09:36:53.921Z,1.71
2019-01-10T09:39:24.702Z,1.94
2019-01-10T09:41:55.520Z,2.11
2019-01-10T09:44:26.312Z,2.21
2019-01-10T09:46:57.072Z,2.23
2019-01-10T09:49:27.904Z,2.38
2019-01-10T09:51:58.769Z,2.37
2019-01-10T09:54:29.576Z,2.34
2019-01-10T09:57:00.387Z,2.44
2019-01-10T09:59:31.939Z,2.25
2019-01-10T10:02:02.713Z,2.29
2019-01-10T10:04:33.492Z,2.38
2019-01-10T10:07:04.371Z,2.27
2019-01-10T10:09:35.121Z,2.28
2019-01-10T10:12:05.931Z,2.30
2019-01-10T10:14:36.808Z,2.23
2019-01-10T10:17:07.587Z,2.17
2019-01-10T10:19:38.407Z,2.42
2019-01-10T10:22:09.227Z,2.49
2019-01-10T10:24:40.062Z,2.32
2019-01-10T10:27:10.896Z,2.68
2019-01-10T10:29:41.872Z,2.84
2019-01-10T10:32:12.735Z,3.06
2019-01-10T10:34:43.591Z,3.36
2019-01-10T10:37:14.373Z,3.34
2019-01-10T10:39:45.244Z,3.32
2019-01-10T10:42:15.963Z,3.44
2019-01-10T10:44:46.813Z,3.25
2019-01-10T10:47:17.722Z,3.21
2019-01-10T10:49:48.499Z,3.44
2019-01-10T10:52:19.304Z,3.14
2019-01-10T10:54:49.944Z,3.22
2019-01-10T10:57:22.650Z,3.35
2019-01-10T10:59:53.655Z,3.34
2019-01-10T11:02:24.648Z,3.52
2019-01-10T11:04:55.558Z,3.24
2019-01-10T11:07:28.484Z,3.21
2019-01-10T11:09:59.618Z,3.16
2019-01-10T11:12:32.235Z,3.38
2019-01-10T11:15:03.340Z,3.51
2019-01-10T11:17:34.379Z,3.50
2019-01-10T11:20:07.891Z,3.36
2019-01-10T11:22:38.965Z,3.49
2019-01-10T11:25:14.464Z,3.50
2019-01-10T11:27:45.611Z,3.45
2019-01-10T11:30:18.987Z,3.67
2019-01-10T11:32:50.244Z,3.60
2019-01-10T11:35:23.367Z,3.53
2019-01-10T11:37:54.323Z,3.63
2019-01-10T11:40:25.333Z,3.49
2019-01-10T11:42:56.264Z,3.72
2019-01-10T11:45:29.553Z,3.43
2019-01-10T11:48:00.497Z,3.48
2019-01-10T11:50:31.411Z,3.36
2019-01-10T11:53:03.383Z,3.55
2019-01-10T11:55:34.335Z,3.60
2019-01-10T11:58:05.623Z,3.47
2019-01-10T12:00:37.223Z,3.55
2019-01-10T12:03:09.791Z,3.46
2019-01-10T12:05:47.868Z,3.54
2019-01-10T12:08:16.794Z,3.49
2019-01-10T12:10:47.926Z,3.30
2019-01-10T12:13:18.911Z,3.37
2019-01-10T12:15:49.919Z,3.37
2019-01-10T12:18:21.055Z,3.48
2019-01-10T12:20:52.313Z,3.47
2019-01-10T12:23:23.297Z,3.26
2019-01-10T12:25:54.210Z,3.21
2019-01-10T12:28:26.592Z,3.09
2019-01-10T12:30:57.773Z,2.88
2019-01-10T12:33:28.635Z,3.04
2019-01-10T12:35:59.634Z,2.92
2019-01-10T12:38:30.630Z,2.95
2019-01-10T12:41:01.719Z,2.79
2019-01-10T12:43:32.774Z,2.68
2019-01-10T12:46:05.953Z,2.67
2019-01-10T12:48:36.619Z,2.67
2019-01-10T12:51:07.655Z,2.82
2019-01-10T12:53:38.865Z,2.76
2019-01-10T12:56:09.991Z,2.74
2019-01-10T12:58:40.825Z,2.98
2019-01-10T13:01:11.824Z,2.88
2019-01-10T13:03:42.781Z,3.01
2019-01-10T13:06:13.779Z,3.03
2019-01-10T13:08:44.816Z,2.95
2019-01-10T13:11:15.834Z,2.86
2019-01-10T13:13:46.815Z,3.09
2019-01-10T13:16:17.799Z,2.68
2019-01-10T13:18:48.758Z,2.82
2019-01-10T13:21:19.754Z,2.92
2019-01-10T13:23:50.633Z,2.90
2019-01-10T13:26:21.782Z,2.69
2019-01-10T13:28:52.837Z,2.68
2019-01-10T13:31:23.824Z,2.40
2019-01-10T13:33:55.282Z,2.32
2019-01-10T13:36:26.263Z,2.63
2019-01-10T13:38:57.281Z,2.53
2019-01-10T13:41:28.250Z,2.85
2019-01-10T13:43:59.282Z,2.81
2019-01-10T13:46:30.315Z,2.74
2019-01-10T13:49:01.332Z,2.60
2019-01-10T13:51:32.402Z,2.61
2019-01-10T13:54:03.416Z,2.55
2019-01-10T13:56:37.239Z,2.50
2019-01-10T13:59:08.314Z,2.56
2019-01-10T14:01:41.914Z,2.36
2019-01-10T14:06:52.273Z,2.65
2019-01-10T14:09:24.990Z,2.65
2019-01-10T14:11:53.678Z,2.69
2019-01-10T14:14:24.811Z,2.59
2019-01-10T14:17:01.435Z,2.47
2019-01-10T14:19:31.900Z,2.49
2019-01-10T14:22:05.029Z,2.44
2019-01-10T14:24:36.219Z,2.49
2019-01-10T14:27:09.222Z,2.60
2019-01-10T14:29:40.278Z,2.55
2019-01-10T14:32:11.226Z,2.55
2019-01-10T14:34:42.264Z,2.53
2019-01-10T14:37:14.947Z,2.53
2019-01-10T14:39:45.982Z,2.57
2019-01-10T14:42:17.325Z,2.49
2019-01-10T14:44:48.491Z,2.40
2019-01-10T14:47:19.564Z,2.47
2019-01-10T14:49:50.524Z,2.44
2019-01-10T14:52:21.583Z,2.41
2019-01-10T14:54:52.513Z,2.26
2019-01-10T14:57:23.437Z,2.33
2019-01-10T14:59:54.430Z,2.17
2019-01-10T15:02:25.518Z,2.21
2019-01-10T15:04:56.516Z,2.29
2019-01-10T15:07:27.502Z,2.26
2019-01-10T15:09:58.654Z,2.12
2019-01-10T15:12:29.589Z,2.07
2019-01-10T15:15:00.507Z,2.10
2019-01-10T15:17:31.636Z,2.16
2019-01-10T15:20:02.992Z,2.20
2019-01-10T15:22:33.986Z,2.11
2019-01-10T15:25:05.683Z,2.13
2019-01-10T15:27:36.755Z,2.10
2019-01-10T15:30:15.826Z,1.98
2019-01-10T15:32:47.079Z,2.13
2019-01-10T15:35:18.435Z,2.16
2019-01-10T15:37:49.521Z,2.12
2019-01-10T15:40:33.088Z,1.98
2019-01-10T15:43:06.268Z,2.08
2019-01-10T15:45:37.204Z,2.09
2019-01-10T15:48:08.476Z,1.88
2019-01-10T15:50:39.301Z,1.95
2019-01-10T15:53:10.261Z,2.00
2019-01-10T15:55:41.577Z,1.98
2019-01-10T15:58:14.544Z,1.90
2019-01-10T16:00:45.841Z,1.84
2019-01-10T16:03:16.865Z,1.82
2019-01-10T16:05:47.827Z,1.80
2019-01-10T16:08:19.349Z,1.86
2019-01-10T16:10:52.077Z,1.91
2019-01-10T16:13:23.805Z,1.87
2019-01-10T16:15:55.299Z,1.80
2019-01-10T16:18:26.113Z,1.82
2019-01-10T16:20:57.303Z,1.78
2019-01-10T16:23:28.540Z,1.78
2019-01-10T16:26:02.715Z,1.75
2019-01-10T16:28:35.524Z,1.73
2019-01-10T16:31:06.567Z,1.67
2019-01-10T16:33:39.902Z,1.68
2019-01-10T16:36:21.593Z,1.60
2019-01-10T16:38:52.393Z,1.57
2019-01-10T16:41:23.209Z,1.61
2019-01-10T16:43:54.419Z,1.56
2019-01-10T16:46:29.477Z,1.50
2019-01-10T16:49:02.292Z,1.49
2019-01-10T16:52:26.574Z,1.47
2019-01-10T16:54:12.547Z,1.43
2019-01-10T16:56:45.112Z,1.36
2019-01-10T16:59:24.690Z,1.37
2019-01-10T17:02:27.339Z,1.33
2019-01-10T17:05:13.484Z,1.35
2019-01-10T17:08:01.505Z,1.29
2019-01-10T17:10:33.085Z,1.14
2019-01-10T17:13:04.173Z,1.23
2019-01-10T18:00:23.687Z,0.93
2019-01-10T18:03:05.587Z,1.12
2019-01-10T18:05:41.457Z,1.18
2019-01-10T18:08:13.489Z,1.04
2019-01-10T18:10:44.372Z,1.03
2019-01-10T18:13:15.354Z,1.20
2019-01-10T18:15:46.220Z,1.23
2019-01-10T18:18:17.221Z,1.25
2019-01-10T18:20:50.796Z,1.25
2019-01-10T18:23:21.820Z,1.21
2019-01-10T18:25:52.904Z,1.19
2019-01-10T18:28:23.898Z,1.18
2019-01-10T18:30:55.073Z,1.08
2019-01-10T18:33:26.147Z,0.97
2019-01-10T18:35:56.978Z,0.88
2019-01-10T18:38:27.824Z,0.79
2019-01-10T18:40:58.639Z,0.70
2019-01-10T18:43:29.468Z,0.86
2019-01-10T18:46:00.447Z,0.78
2019-01-10T18:48:31.222Z,0.80
2019-01-10T18:51:02.072Z,0.70
2019-01-10T18:53:33.017Z,0.67
2019-01-10T18:56:05.312Z,0.61
2019-01-10T18:58:36.094Z,0.56
2019-01-10T19:01:07.158Z,0.56
2019-01-10T19:03:37.984Z,0.53
2019-01-10T19:06:08.870Z,0.53
2019-01-10T19:08:39.984Z,0.44
2019-01-10T19:11:10.962Z,0.20
2019-01-10T19:13:43.555Z,0.26
2019-01-10T19:16:14.738Z,0.12
2019-01-10T19:18:46.745Z,0.17
2019-01-10T19:21:18.078Z,0.28
2019-01-10T19:23:59.816Z,0.27
2019-01-10T19:26:51.088Z,0.04
2019-01-10T19:29:16.860Z,-0.10
2019-01-10T19:31:56.929Z,-0.12
2019-01-10T19:34:29.136Z,-0.17
2019-01-10T19:37:00.180Z,-0.32
2019-01-10T19:39:31.754Z,-0.28
2019-01-10T19:42:03.051Z,-0.38
2019-01-10T19:44:34.381Z,-0.29
2019-01-10T19:47:07.692Z,-0.29
2019-01-10T19:49:38.680Z,-0.53
2019-01-10T19:52:26.015Z,-0.71
2019-01-10T19:54:56.849Z,-0.64
2019-01-10T19:57:30.095Z,-0.81
2019-01-10T20:00:00.911Z,-0.86
2019-01-10T20:02:31.767Z,-0.81
2019-01-10T20:05:04.791Z,-0.87
2019-01-10T20:07:35.880Z,-0.85
2019-01-10T20:10:11.125Z,-0.82
2019-01-10T20:12:42.392Z,-0.78
2019-01-10T20:15:58.293Z,-0.76
2019-01-10T20:18:29.330Z,-0.78
2019-01-10T20:21:00.172Z,-0.78
2019-01-10T20:23:35.285Z,-0.75
2019-01-10T20:27:12.695Z,-0.87
2019-01-10T20:28:54.003Z,-0.60
2019-01-10T20:32:32.631Z,-0.41
2019-01-10T20:34:31.135Z,-0.30
2019-01-10T20:36:53.616Z,-0.42
2019-01-10T20:39:24.609Z,-0.64
2019-01-10T20:42:01.686Z,-0.70
2019-01-10T20:44:31.536Z,-0.75
2019-01-10T20:47:02.619Z,-0.81
2019-01-10T20:49:35.760Z,-1.00
2019-01-10T20:52:06.899Z,-1.12
2019-01-10T20:54:37.799Z,-1.24
2019-01-10T20:57:08.579Z,-1.30
2019-01-10T20:59:39.474Z,-1.30
2019-01-10T21:02:10.474Z,-1.38
2019-01-10T21:04:41.463Z,-1.47
2019-01-10T21:07:13.745Z,-1.57
2019-01-10T21:09:44.568Z,-1.62
2019-01-10T21:12:15.419Z,-1.70
2019-01-10T21:14:46.263Z,-1.74
2019-01-10T21:17:17.103Z,-1.83
2019-01-10T21:19:47.940Z,-1.89
2019-01-10T21:22:18.797Z,-1.92
2019-01-10T21:24:49.847Z,-1.96
2019-01-10T21:27:20.791Z,-2.02
2019-01-10T21:29:54.763Z,-2.09
2019-01-10T21:32:25.547Z,-2.17
2019-01-10T21:34:56.366Z,-2.23
2019-01-10T21:37:27.369Z,-2.27
2019-01-10T21:39:58.109Z,-2.28
2019-01-10T21:42:28.949Z,-2.36
2019-01-10T21:44:59.761Z,-2.42
2019-01-10T21:47:45.195Z,-2.46
2019-01-10T21:50:22.067Z,-2.52
2019-01-10T21:52:53.227Z,-2.61
2019-01-10T21:55:24.526Z,-2.65
2019-01-10T21:57:55.411Z,-2.70
2019-01-10T22:00:33.370Z,-2.67
2019-01-10T22:03:05.804Z,-2.72
2019-01-10T22:05:36.657Z,-2.73
2019-01-10T22:08:09.518Z,-2.70
2019-01-10T22:10:40.418Z,-2.59
2019-01-10T22:13:11.267Z,-2.57
2019-01-10T22:15:42.126Z,-2.56
2019-01-10T22:18:12.952Z,-2.53
2019-01-10T22:20:43.753Z,-2.56
2019-01-10T22:23:14.510Z,-2.61
2019-01-10T22:25:45.362Z,-2.63
2019-01-10T22:28:16.230Z,-2.68
2019-01-10T22:30:47.038Z,-2.74
2019-01-10T22:33:17.854Z,-2.78
2019-01-10T22:35:48.649Z,-2.82
2019-01-10T22:38:19.490Z,-2.88
2019-01-10T22:40:50.407Z,-2.92
2019-01-10T22:43:21.243Z,-2.98
2019-01-10T22:45:52.930Z,-3.02
2019-01-10T22:48:23.726Z,-3.02
2019-01-10T22:50:54.578Z,-2.99
2019-01-10T22:53:25.330Z,-3.02
2019-01-10T22:55:56.120Z,-2.94
2019-01-10T22:58:26.950Z,-2.99
2019-01-10T23:01:49.062Z,-3.07
2019-01-10T23:04:30.674Z,-3.10
2019-01-10T23:07:01.880Z,-3.13
2019-01-10T23:09:32.662Z,-3.12
2019-01-10T23:12:05.188Z,-3.08
2019-01-10T23:14:35.961Z,-3.09
2019-01-10T23:17:07.418Z,-3.12
2019-01-10T23:19:47.711Z,-3.16
2019-01-10T23:22:19.781Z,-3.13
2019-01-10T23:24:58.933Z,-3.21
2019-01-10T23:27:29.703Z,-3.23
2019-01-10T23:30:00.517Z,-3.25
2019-01-10T23:32:31.271Z,-3.27
2019-01-10T23:35:02.369Z,-3.26
2019-01-10T23:37:33.106Z,-3.21
2019-01-10T23:40:04.312Z,-3.25
2019-01-10T23:42:35.113Z,-3.22
2019-01-10T23:45:08.352Z,-3.28
2019-01-10T23:47:39.175Z,-3.27
2019-01-10T23:50:10.386Z,-3.29
2019-01-10T23:52:41.146Z,-3.31
2019-01-10T23:55:11.948Z,-3.32
2019-01-10T23:57:42.745Z,-3.35
